VJC559 VVTS-VTSM
Flight info
| Callsign | VJC559 |
|---|---|
| Flight time | N/A |
| Altitude | 37000 |
| Route | ATGAS7B/25L ATGAS W17 TUNPO DCT BANSA/N0441F380 DCT KUMTO DCT UPNEP |
| Aircraft | A320/M-SDE3FGHIRWY/LB1 |
Departure
| Time | 2026-05-03 20:28 |
|---|---|
| Airport | Tan Son Nhat International Airport (VVTS) |
Arrival
| Time | N/A |
|---|---|
| Airport | Samui International Airport (VTSM) |
| Time | Latitude | Longitude | Altitude | Speed | Heading |
|---|---|---|---|---|---|
| 2026-05-03 20:15 | 10.81566 | 106.66044 | 34 ft | 0 kts | 5° |
| 2026-05-03 20:21 | 10.81605 | 106.66048 | 37 ft | 8 kts | 5° |
| 2026-05-03 20:22 | 10.81661 | 106.66053 | 37 ft | 8 kts | 5° |
| 2026-05-03 20:22 | 10.81711 | 106.66058 | 37 ft | 8 kts | 5° |
| 2026-05-03 20:22 | 10.81783 | 106.66065 | 37 ft | 10 kts | 5° |
| 2026-05-03 20:22 | 10.81852 | 106.66079 | 36 ft | 10 kts | 29° |
| 2026-05-03 20:23 | 10.81885 | 106.66138 | 36 ft | 9 kts | 70° |
| 2026-05-03 20:23 | 10.81910 | 106.66203 | 36 ft | 13 kts | 69° |
| 2026-05-03 20:23 | 10.81949 | 106.66306 | 37 ft | 17 kts | 69° |
| 2026-05-03 20:23 | 10.81993 | 106.66424 | 36 ft | 18 kts | 69° |
| 2026-05-03 20:24 | 10.82039 | 106.66546 | 34 ft | 18 kts | 69° |
| 2026-05-03 20:24 | 10.82083 | 106.66658 | 33 ft | 15 kts | 69° |
| 2026-05-03 20:24 | 10.82119 | 106.66756 | 33 ft | 16 kts | 69° |
| 2026-05-03 20:24 | 10.82154 | 106.66851 | 30 ft | 14 kts | 69° |
| 2026-05-03 20:25 | 10.82187 | 106.66939 | 34 ft | 9 kts | 69° |
| 2026-05-03 20:25 | 10.82207 | 106.66988 | 35 ft | 6 kts | 62° |
| 2026-05-03 20:25 | 10.82231 | 106.67009 | 36 ft | 4 kts | 21° |
| 2026-05-03 20:25 | 10.82257 | 106.67008 | 34 ft | 4 kts | 347° |
| 2026-05-03 20:26 | 10.82275 | 106.67001 | 35 ft | 0 kts | 339° |
| 2026-05-03 20:27 | 10.82325 | 106.66974 | 35 ft | 12 kts | 317° |
| 2026-05-03 20:27 | 10.82349 | 106.66909 | 35 ft | 10 kts | 266° |
| 2026-05-03 20:27 | 10.82333 | 106.66855 | 33 ft | 8 kts | 249° |
| 2026-05-03 20:28 | 10.82304 | 106.66777 | 31 ft | 28 kts | 249° |
| 2026-05-03 20:28 | 10.82127 | 106.66311 | 34 ft | 109 kts | 249° |
| 2026-05-03 20:28 | 10.81773 | 106.65375 | 40 ft | 169 kts | 248° |
| 2026-05-03 20:28 | 10.81324 | 106.64249 | 681 ft | 170 kts | 247° |
| 2026-05-03 20:29 | 10.80918 | 106.63118 | 1478 ft | 170 kts | 249° |
| 2026-05-03 20:29 | 10.80523 | 106.61958 | 2128 ft | 181 kts | 248° |
| 2026-05-03 20:29 | 10.80084 | 106.60679 | 2504 ft | 204 kts | 248° |
| 2026-05-03 20:29 | 10.79584 | 106.59235 | 2901 ft | 229 kts | 248° |
| 2026-05-03 20:30 | 10.79024 | 106.57628 | 3376 ft | 253 kts | 248° |
| 2026-05-03 20:30 | 10.78406 | 106.55863 | 3920 ft | 275 kts | 249° |
| 2026-05-03 20:30 | 10.77752 | 106.54002 | 4780 ft | 283 kts | 249° |
| 2026-05-03 20:30 | 10.77081 | 106.52097 | 5713 ft | 288 kts | 249° |
| 2026-05-03 20:31 | 10.76400 | 106.50164 | 6648 ft | 292 kts | 249° |
| 2026-05-03 20:31 | 10.75709 | 106.48210 | 7519 ft | 296 kts | 250° |
| 2026-05-03 20:31 | 10.75001 | 106.46220 | 8406 ft | 301 kts | 249° |
| 2026-05-03 20:31 | 10.74274 | 106.44210 | 9259 ft | 306 kts | 249° |
| 2026-05-03 20:32 | 10.73528 | 106.42162 | 10079 ft | 312 kts | 249° |
| 2026-05-03 20:32 | 10.72745 | 106.40021 | 10410 ft | 335 kts | 249° |
| 2026-05-03 20:32 | 10.72200 | 106.38528 | 10745 ft | 343 kts | 249° |
| 2026-05-03 20:32 | 10.71363 | 106.36232 | 11469 ft | 349 kts | 249° |
| 2026-05-03 20:33 | 10.70517 | 106.33910 | 12244 ft | 352 kts | 249° |
| 2026-05-03 20:33 | 10.69654 | 106.31537 | 13061 ft | 354 kts | 249° |
| 2026-05-03 20:33 | 10.68801 | 106.29186 | 13827 ft | 357 kts | 249° |
| 2026-05-03 20:33 | 10.67948 | 106.26835 | 14491 ft | 360 kts | 249° |
| 2026-05-03 20:34 | 10.67066 | 106.24410 | 15160 ft | 363 kts | 249° |
| 2026-05-03 20:34 | 10.66185 | 106.21989 | 15802 ft | 367 kts | 249° |
| 2026-05-03 20:34 | 10.65292 | 106.19544 | 16444 ft | 371 kts | 249° |
| 2026-05-03 20:34 | 10.64389 | 106.17076 | 17079 ft | 375 kts | 249° |
| 2026-05-03 20:35 | 10.63479 | 106.14582 | 17705 ft | 379 kts | 249° |
| 2026-05-03 20:35 | 10.62562 | 106.12060 | 18296 ft | 382 kts | 249° |
| 2026-05-03 20:35 | 10.61633 | 106.09511 | 18836 ft | 386 kts | 249° |
| 2026-05-03 20:35 | 10.60697 | 106.06949 | 19384 ft | 389 kts | 249° |
| 2026-05-03 20:36 | 10.59751 | 106.04365 | 19936 ft | 392 kts | 249° |
| 2026-05-03 20:36 | 10.58798 | 106.01759 | 20486 ft | 395 kts | 249° |
| 2026-05-03 20:36 | 10.57839 | 105.99137 | 21028 ft | 398 kts | 249° |
| 2026-05-03 20:36 | 10.56871 | 105.96488 | 21573 ft | 401 kts | 249° |
| 2026-05-03 20:37 | 10.56227 | 105.94722 | 21934 ft | 403 kts | 249° |